Time;durP1;ratioP1;P1;durP2;ratioP2;P2;SDS_P1;SDS_P2;PMS_P1;PMS_P2;Temp;Humidity;BMP_temperature;BMP_pressure;BME280_temperature;BME280_humidity;BME280_pressure;Samples;Min_cycle;Max_cycle;Signal;HPM_P1;HPM_P2
2022/12/20 00:01:29;;;;;;;0.50;0.50;;;;;;;23.55;35.02;99966.81;1868518;76;28146;-66
2022/12/20 00:04:17;;;;;;;0.57;0.57;;;;;;;23.55;35.05;99968.99;1890239;75;28143;-67
2022/12/20 00:07:06;;;;;;;0.57;0.57;;;;;;;23.56;35.07;99956.97;1890319;75;28100;-67
2022/12/20 00:09:56;;;;;;;0.60;0.60;;;;;;;23.54;35.09;99959.64;1885906;75;28282;-67
2022/12/20 00:12:44;;;;;;;0.70;0.70;;;;;;;23.53;35.10;99971.66;1868607;76;28095;-67
2022/12/20 00:15:33;;;;;;;0.78;0.50;;;;;;;23.52;35.03;99953.55;1890415;75;28178;-66
2022/12/20 00:18:21;;;;;;;0.70;0.70;;;;;;;23.52;35.08;99950.28;1889340;75;28177;-67
2022/12/20 00:21:12;;;;;;;0.55;0.55;;;;;;;23.54;35.03;99948.66;1882921;75;28067;-66
2022/12/20 00:24:01;;;;;;;0.50;0.50;;;;;;;23.54;35.06;99943.19;1901012;75;28087;-66
2022/12/20 00:26:49;;;;;;;1.45;0.72;;;;;;;23.56;35.02;99941.05;1879671;75;28195;-66
2022/12/20 00:29:38;;;;;;;0.47;0.47;;;;;;;23.50;35.05;99939.23;1900974;75;28185;-66
2022/12/20 00:32:27;;;;;;;0.50;0.50;;;;;;;23.50;35.11;99941.42;1868801;76;28180;-65
2022/12/20 00:35:16;;;;;;;0.50;0.50;;;;;;;23.53;35.09;99933.27;1890240;75;28169;-66
2022/12/20 00:38:04;;;;;;;0.60;0.60;;;;;;;23.52;35.07;99936.56;1892341;75;28188;-67
2022/12/20 00:41:01;;;;;;;0.50;0.50;;;;;;;23.52;35.08;99926.13;1879624;75;28235;-66
2022/12/20 00:43:52;;;;;;;0.70;0.70;;;;;;;23.51;35.08;99920.33;1894755;75;28055;-66
2022/12/20 00:46:42;;;;;;;0.57;0.57;;;;;;;23.53;35.07;99918.19;1871738;75;28280;-67
2022/12/20 00:49:31;;;;;;;0.55;0.55;;;;;;;23.47;35.11;99921.34;1879527;75;28095;-66
2022/12/20 00:52:20;;;;;;;0.60;0.60;;;;;;;23.49;35.12;99926.58;1901006;75;28165;-67
2022/12/20 00:55:09;;;;;;;0.60;0.60;;;;;;;23.48;35.16;99923.55;1868680;76;28284;-66
2022/12/20 00:57:57;;;;;;;0.80;0.50;;;;;;;23.48;35.18;99930.41;1868939;76;28164;-67
2022/12/20 01:00:46;;;;;;;0.60;0.60;;;;;;;23.49;35.18;99921.94;1890013;75;28097;-67
2022/12/20 01:03:34;;;;;;;0.75;0.50;;;;;;;23.48;35.22;99928.48;1888447;75;28047;-66
2022/12/20 01:06:24;;;;;;;0.90;0.53;;;;;;;23.50;35.17;99918.67;1868818;76;28127;-66
2022/12/20 01:09:13;;;;;;;0.50;0.50;;;;;;;23.48;35.15;99922.18;1868943;75;28160;-66
2022/12/20 01:12:01;;;;;;;0.60;0.60;;;;;;;23.50;35.13;99926.34;1835665;76;28175;-66
2022/12/20 01:14:49;;;;;;;0.50;0.50;;;;;;;23.51;35.15;99915.69;1901038;75;28143;-65
2022/12/20 01:17:38;;;;;;;0.50;0.50;;;;;;;23.51;35.16;99908.83;1868616;76;28136;-66
2022/12/20 01:20:26;;;;;;;0.50;0.50;;;;;;;23.49;35.22;99910.97;1890273;75;28158;-66
2022/12/20 01:23:15;;;;;;;0.60;0.60;;;;;;;23.47;35.21;99925.98;1891386;75;28204;-66
2022/12/20 01:26:08;;;;;;;0.40;0.40;;;;;;;23.49;35.23;99918.35;1868572;75;28229;-66
2022/12/20 01:28:58;;;;;;;0.50;0.50;;;;;;;23.47;35.21;99941.05;1868562;75;28103;-66
2022/12/20 01:31:46;;;;;;;0.70;0.70;;;;;;;23.48;35.25;99935.33;1888963;75;28056;-68
2022/12/20 01:34:36;;;;;;;0.70;0.70;;;;;;;23.47;35.23;99921.86;1901213;75;28129;-68
2022/12/20 01:37:24;;;;;;;0.70;0.70;;;;;;;23.46;35.28;99947.06;1901050;75;28087;-67
2022/12/20 01:40:14;;;;;;;0.53;0.53;;;;;;;23.48;35.26;99923.55;1868475;76;28155;-67
2022/12/20 01:43:02;;;;;;;0.60;0.60;;;;;;;23.41;35.28;99921.42;1884295;75;28143;-66
2022/12/20 01:45:51;;;;;;;0.57;0.53;;;;;;;23.48;35.27;99919.44;1863118;75;28241;-66
2022/12/20 01:48:42;;;;;;;0.50;0.50;;;;;;;23.42;35.32;99932.67;1880178;76;28175;-66
2022/12/20 01:51:34;;;;;;;0.53;0.50;;;;;;;23.46;35.30;99947.59;1883104;75;28104;-66
2022/12/20 01:54:26;;;;;;;1.25;0.60;;;;;;;23.46;35.26;99935.25;1867016;75;28079;-66
2022/12/20 01:57:18;;;;;;;0.60;0.60;;;;;;;23.43;35.28;99950.28;1900813;75;28548;-66
2022/12/20 02:00:08;;;;;;;0.53;0.53;;;;;;;23.44;35.28;99933.28;1880691;75;28138;-66
2022/12/20 02:03:10;;;;;;;0.80;0.80;;;;;;;23.43;35.31;99926.98;1867156;75;28146;-68
2022/12/20 02:06:02;;;;;;;0.60;0.60;;;;;;;23.47;35.19;99939.16;1891192;75;28174;-64
2022/12/20 02:08:52;;;;;;;0.45;0.45;;;;;;;23.40;35.31;99925.22;1857423;75;28601;-67
2022/12/20 02:11:59;;;;;;;0.78;0.78;;;;;;;23.41;35.29;99943.36;1887509;75;28166;-67
2022/12/20 02:14:56;;;;;;;0.50;0.50;;;;;;;23.43;35.26;99945.33;1885048;75;28103;-67
2022/12/20 02:18:12;;;;;;;0.60;0.60;;;;;;;23.42;35.25;99927.19;1868322;76;28179;-66
2022/12/20 02:21:23;;;;;;;1.20;1.02;;;;;;;23.36;35.31;99921.55;1869884;75;28100;-66
2022/12/20 02:24:29;;;;;;;0.60;0.60;;;;;;;23.38;35.32;99910.91;1868979;75;28229;-67
2022/12/20 02:27:44;;;;;;;0.70;0.70;;;;;;;23.34;35.34;99922.81;1856686;76;28178;-67
2022/12/20 02:30:36;;;;;;;0.60;0.60;;;;;;;23.35;35.33;99913.05;1867546;75;28214;-67
2022/12/20 02:33:27;;;;;;;1.00;0.68;;;;;;;23.34;35.34;99919.58;1866976;75;28091;-66
2022/12/20 02:36:18;;;;;;;0.60;0.60;;;;;;;23.35;35.33;99919.05;1888725;75;28127;-67
2022/12/20 02:39:11;;;;;;;0.53;0.53;;;;;;;23.38;35.27;99882.97;1871157;75;28073;-66
2022/12/20 02:42:03;;;;;;;0.70;0.70;;;;;;;23.36;35.30;99890.59;1868310;76;28174;-67
2022/12/20 02:48:06;;;;;;;0.68;0.68;;;;;;;23.38;35.28;99884.86;1883651;75;28111;-66
2022/12/20 02:50:58;;;;;;;0.50;0.50;;;;;;;23.34;35.33;99890.80;1888843;75;28064;-66
2022/12/20 02:53:48;;;;;;;0.50;0.50;;;;;;;23.36;35.35;99902.36;1872220;75;28216;-66
2022/12/20 02:56:48;;;;;;;0.60;0.60;;;;;;;23.36;35.29;99923.48;1856928;77;28099;-66
2022/12/20 02:59:43;;;;;;;0.65;0.65;;;;;;;23.36;35.31;99902.36;1886159;75;28107;-66
2022/12/20 03:05:25;;;;;;;0.53;0.53;;;;;;;23.34;35.32;99879.83;1807005;77;28279;-65
2022/12/20 03:08:14;;;;;;;0.65;0.65;;;;;;;23.35;35.32;99882.89;1856672;77;28222;-67
2022/12/20 03:11:02;;;;;;;0.68;0.68;;;;;;;23.32;35.33;99890.69;1878887;75;28122;-67
2022/12/20 03:13:52;;;;;;;0.60;0.60;;;;;;;23.36;35.28;99895.51;1867009;75;28194;-68
2022/12/20 03:16:40;;;;;;;0.50;0.50;;;;;;;23.34;35.31;99892.66;1868287;75;28162;-66
2022/12/20 03:19:29;;;;;;;0.70;0.70;;;;;;;23.34;35.34;99888.55;1871417;75;28201;-66
2022/12/20 03:22:17;;;;;;;0.70;0.70;;;;;;;23.35;35.33;99878.78;1888764;75;28096;-66
2022/12/20 03:25:07;;;;;;;0.70;0.70;;;;;;;23.36;35.32;99874.14;1885244;75;28056;-66
2022/12/20 03:27:56;;;;;;;0.60;0.60;;;;;;;23.35;35.33;99877.41;1876588;75;28131;-66
2022/12/20 03:30:45;;;;;;;0.50;0.50;;;;;;;23.32;35.35;99869.60;1856606;77;28178;-65
2022/12/20 03:33:33;;;;;;;0.63;0.63;;;;;;;23.34;35.32;99871.61;1876976;75;28115;-66
2022/12/20 03:36:23;;;;;;;0.50;0.50;;;;;;;23.33;35.30;99873.19;1879504;75;28158;-67
2022/12/20 03:39:13;;;;;;;0.70;0.70;;;;;;;23.33;35.26;99871.29;1901316;75;28154;-67
2022/12/20 03:42:01;;;;;;;0.70;0.70;;;;;;;23.32;35.32;99869.60;1868426;76;28153;-66
2022/12/20 03:44:50;;;;;;;0.68;0.68;;;;;;;23.34;35.30;99862.02;1878270;75;28588;-66
2022/12/20 03:47:38;;;;;;;0.70;0.70;;;;;;;23.31;35.26;99879.44;1879752;75;28091;-66
2022/12/20 03:50:27;;;;;;;0.70;0.70;;;;;;;23.28;35.30;99862.91;1888872;75;28075;-66
2022/12/20 03:53:15;;;;;;;0.73;0.73;;;;;;;23.32;35.28;99877.83;1856737;77;28139;-66
2022/12/20 03:56:06;;;;;;;0.72;0.72;;;;;;;23.35;35.25;99863.70;1890683;75;30034;-67
2022/12/20 03:58:55;;;;;;;0.90;0.90;;;;;;;23.35;35.25;99865.59;1890582;75;28394;-49
2022/12/20 04:01:43;;;;;;;0.70;0.70;;;;;;;23.33;35.30;99852.10;1872271;75;28230;-46
2022/12/20 04:04:33;;;;;;;0.80;0.80;;;;;;;23.31;35.36;99850.09;1888452;75;28248;-45
2022/12/20 04:07:21;;;;;;;1.35;0.80;;;;;;;23.36;35.33;99853.02;1861758;76;28291;-44
2022/12/20 04:10:11;;;;;;;0.80;0.80;;;;;;;23.38;35.30;99862.93;1888808;75;28137;-45
2022/12/20 04:12:59;;;;;;;0.78;0.78;;;;;;;23.41;35.28;99844.66;1901097;75;28216;-45
2022/12/20 04:15:47;;;;;;;0.60;0.60;;;;;;;23.39;35.25;99842.13;1874701;75;28192;-46
2022/12/20 04:18:37;;;;;;;0.90;0.70;;;;;;;23.38;35.24;99834.98;1880048;75;28107;-47
2022/12/20 04:21:31;;;;;;;0.60;0.60;;;;;;;23.36;35.26;99862.61;1875604;75;28127;-46
2022/12/20 04:24:20;;;;;;;0.72;0.72;;;;;;;23.35;35.27;99846.41;1871522;75;28205;-46
2022/12/20 04:27:19;;;;;;;0.98;0.88;;;;;;;23.33;35.30;99847.98;1856391;77;28143;-44
2022/12/20 04:30:11;;;;;;;0.80;0.80;;;;;;;23.33;35.26;99849.36;1878435;75;28260;-46
2022/12/20 04:32:59;;;;;;;0.70;0.70;;;;;;;23.31;35.27;99851.47;1878445;75;28087;-46
2022/12/20 04:35:48;;;;;;;0.72;0.72;;;;;;;23.32;35.27;99838.08;1873050;75;33083;-46
2022/12/20 04:38:37;;;;;;;0.60;0.60;;;;;;;23.35;35.24;99856.84;1877857;75;28131;-45
2022/12/20 04:41:26;;;;;;;0.70;0.70;;;;;;;23.34;35.21;99850.17;1878119;75;28135;-45
2022/12/20 04:44:16;;;;;;;0.62;0.62;;;;;;;23.32;35.24;99852.31;1877840;75;28065;-47
2022/12/20 04:47:04;;;;;;;0.80;0.80;;;;;;;23.33;35.21;99854.00;1868373;76;28235;-48
2022/12/20 04:49:53;;;;;;;0.80;0.80;;;;;;;23.32;35.21;99864.13;1890359;75;28150;-45
2022/12/20 04:55:47;;;;;;;0.57;0.57;;;;;;;23.32;35.18;99861.38;1880059;75;28075;-48
2022/12/20 04:58:36;;;;;;;0.72;0.72;;;;;;;23.30;35.21;99861.30;1888913;75;28143;-46
2022/12/20 05:01:27;;;;;;;0.80;0.80;;;;;;;23.31;35.20;99856.95;1900980;75;28134;-47
2022/12/20 05:04:15;;;;;;;0.68;0.68;;;;;;;23.31;35.20;99854.20;1900941;75;28538;-45
2022/12/20 05:07:04;;;;;;;0.60;0.60;;;;;;;23.32;35.18;99841.34;1900843;75;28173;-45
2022/12/20 05:09:53;;;;;;;0.80;0.80;;;;;;;23.32;35.17;99856.42;1888673;75;28143;-45
2022/12/20 05:12:42;;;;;;;0.65;0.65;;;;;;;23.33;35.17;99856.21;1868454;76;28233;-46
2022/12/20 05:15:32;;;;;;;0.70;0.70;;;;;;;23.32;35.17;99849.57;1890185;75;28150;-46
2022/12/20 05:18:22;;;;;;;0.70;0.70;;;;;;;23.31;35.18;99861.63;1868239;75;28289;-45
2022/12/20 05:27:26;;;;;;;0.77;0.77;;;;;;;23.29;35.16;99848.13;1856636;77;28623;-45
2022/12/20 05:30:16;;;;;;;1.20;0.82;;;;;;;23.27;35.18;99849.42;1875824;75;28130;-44
2022/12/20 05:33:05;;;;;;;0.62;0.62;;;;;;;23.25;35.22;99830.47;1879331;75;28063;-44
2022/12/20 05:35:54;;;;;;;0.70;0.70;;;;;;;23.26;35.19;99832.16;1901115;75;28063;-46
2022/12/20 05:38:43;;;;;;;0.90;0.90;;;;;;;23.28;35.17;99836.88;1868331;76;28216;-45
2022/12/20 05:41:33;;;;;;;0.88;0.88;;;;;;;23.30;35.15;99840.75;1890490;75;28147;-46
2022/12/20 05:44:22;;;;;;;0.62;0.62;;;;;;;23.30;35.11;99851.70;1890675;75;28122;-45
2022/12/20 05:47:12;;;;;;;0.72;0.72;;;;;;;23.29;35.15;99854.98;1885813;75;28164;-46
2022/12/20 05:50:00;;;;;;;0.78;0.78;;;;;;;23.30;35.10;99844.86;1868183;76;28135;-46
2022/12/20 05:52:50;;;;;;;0.90;0.90;;;;;;;23.29;35.08;99837.16;1873750;75;28103;-46
2022/12/20 05:55:45;;;;;;;0.65;0.65;;;;;;;23.28;35.12;99840.14;1879631;75;28157;-48
2022/12/20 05:58:34;;;;;;;0.80;0.80;;;;;;;23.28;35.13;99842.36;1893991;75;28141;-45
2022/12/20 06:01:24;;;;;;;0.80;0.80;;;;;;;23.26;35.08;99830.79;1868558;76;28311;-47
2022/12/20 06:04:14;;;;;;;0.80;0.80;;;;;;;23.27;35.10;99837.92;1874061;75;28052;-46
2022/12/20 06:07:04;;;;;;;0.80;0.80;;;;;;;23.25;35.14;99824.99;1879878;75;28154;-45
2022/12/20 06:09:53;;;;;;;0.60;0.60;;;;;;;23.27;35.07;99817.37;1901230;75;28104;-45
2022/12/20 06:12:43;;;;;;;0.93;0.80;;;;;;;23.25;35.10;99808.55;1879539;75;28174;-44
2022/12/20 06:15:32;;;;;;;0.80;0.70;;;;;;;23.25;35.12;99810.45;1901070;75;28104;-46
2022/12/20 06:18:21;;;;;;;0.80;0.80;;;;;;;23.27;35.12;99807.78;1877580;75;28623;-45
2022/12/20 06:21:12;;;;;;;0.70;0.70;;;;;;;23.19;35.15;99808.64;1884930;75;28067;-45
2022/12/20 06:24:00;;;;;;;0.80;0.80;;;;;;;23.17;35.18;99810.25;1900995;75;28092;-45
2022/12/20 06:26:50;;;;;;;0.70;0.70;;;;;;;23.13;35.27;99799.95;1888960;75;28215;-50
2022/12/20 06:29:39;;;;;;;1.70;0.85;;;;;;;23.16;35.26;99798.97;1889819;75;31077;-47
2022/12/20 06:32:32;;;;;;;1.00;0.70;;;;;;;23.20;35.16;99781.52;1885198;75;30152;-48
2022/12/20 06:35:20;;;;;;;0.80;0.80;;;;;;;23.22;35.16;99795.30;1874559;75;28124;-48
2022/12/20 06:38:09;;;;;;;1.02;1.02;;;;;;;23.22;35.09;99798.59;1879364;75;28130;-46
2022/12/20 06:40:58;;;;;;;0.85;0.85;;;;;;;23.22;35.05;99790.38;1880638;75;28236;-46
2022/12/20 06:43:46;;;;;;;0.75;0.75;;;;;;;23.23;35.02;99782.44;1885769;75;28095;-45
2022/12/20 06:46:35;;;;;;;1.55;0.80;;;;;;;23.20;35.08;99797.96;1868368;75;28262;-45
2022/12/20 06:49:24;;;;;;;0.90;0.80;;;;;;;23.20;35.01;99789.74;1863074;75;28266;-48
2022/12/20 06:52:13;;;;;;;1.45;1.07;;;;;;;23.17;35.06;99781.48;1901494;75;28178;-45
2022/12/20 06:55:07;;;;;;;1.20;1.10;;;;;;;23.11;34.58;99779.64;1869240;76;28199;-48
2022/12/20 06:57:57;;;;;;;0.90;0.90;;;;;;;23.07;34.67;99782.55;1889776;75;28274;-48
2022/12/20 07:00:48;;;;;;;0.90;0.90;;;;;;;23.05;34.94;99792.06;1893095;75;28126;-45
2022/12/20 07:03:37;;;;;;;1.50;1.00;;;;;;;23.04;35.02;99776.68;1881950;75;28103;-49
2022/12/20 07:06:28;;;;;;;1.67;1.00;;;;;;;23.05;34.99;99787.95;1869333;76;28312;-48
2022/12/20 07:09:17;;;;;;;0.95;0.95;;;;;;;23.05;35.00;99807.13;1890629;75;28140;-50
2022/12/20 07:12:06;;;;;;;0.75;0.75;;;;;;;23.05;35.05;99807.98;1893811;75;29218;-51
2022/12/20 07:14:55;;;;;;;0.90;0.90;;;;;;;23.02;35.29;99813.06;1901323;75;28175;-48
2022/12/20 07:17:43;;;;;;;1.10;1.00;;;;;;;23.05;35.30;99815.36;1901435;75;28244;-45
2022/12/20 07:20:31;;;;;;;0.90;0.90;;;;;;;23.03;35.36;99825.71;1873332;75;28519;-50
2022/12/20 07:23:20;;;;;;;2.15;0.98;;;;;;;23.01;35.51;99818.27;1879611;75;28245;-52
2022/12/20 07:26:10;;;;;;;1.98;1.20;;;;;;;22.99;35.59;99824.47;1901378;75;28148;-46
2022/12/20 07:28:58;;;;;;;0.98;0.98;;;;;;;22.99;35.76;99822.58;1901355;75;28160;-48
2022/12/20 07:31:46;;;;;;;2.05;1.20;;;;;;;23.03;35.52;99818.86;1878909;75;28221;-45
2022/12/20 07:34:37;;;;;;;1.45;1.15;;;;;;;23.08;35.37;99812.98;1878781;75;28356;-47
2022/12/20 07:37:28;;;;;;;4.37;1.20;;;;;;;23.13;35.29;99817.23;1882562;75;28584;-49
2022/12/20 07:40:17;;;;;;;0.93;0.87;;;;;;;23.12;35.22;99804.63;1877642;75;28197;-49
2022/12/20 07:43:06;;;;;;;1.00;0.90;;;;;;;23.13;35.18;99804.91;1892755;75;28207;-50
2022/12/20 07:45:56;;;;;;;1.30;0.90;;;;;;;23.16;35.14;99815.42;1888577;75;28221;-49
2022/12/20 07:48:45;;;;;;;1.00;0.82;;;;;;;23.13;35.06;99821.34;1869078;76;28235;-50
2022/12/20 07:51:42;;;;;;;1.35;0.93;;;;;;;23.16;35.05;99839.23;1872173;75;28192;-49
2022/12/20 07:54:33;;;;;;;0.90;0.80;;;;;;;23.13;35.01;99843.27;1904924;75;28287;-47
2022/12/20 07:57:27;;;;;;;1.67;1.00;;;;;;;23.13;34.98;99832.31;1877314;75;28300;-48
2022/12/20 08:00:23;;;;;;;1.50;0.80;;;;;;;23.13;34.98;99843.27;1881172;75;28137;-49
2022/12/20 08:03:21;;;;;;;1.20;1.10;;;;;;;23.11;35.00;99856.89;1867353;76;28243;-50
2022/12/20 08:06:10;;;;;;;0.80;0.80;;;;;;;23.11;34.99;99853.63;1842006;75;28291;-48
2022/12/20 08:09:01;;;;;;;0.90;0.90;;;;;;;23.08;34.97;99847.23;1898469;75;28146;-48
2022/12/20 08:11:52;;;;;;;0.80;0.80;;;;;;;23.09;34.97;99839.33;1879224;75;28103;-46
2022/12/20 08:14:40;;;;;;;0.82;0.80;;;;;;;23.07;34.90;99833.77;1867719;76;28087;-48
2022/12/20 08:17:29;;;;;;;0.82;0.82;;;;;;;23.09;34.90;99839.33;1878234;75;28063;-48
2022/12/20 08:20:18;;;;;;;1.80;0.93;;;;;;;23.10;34.88;99835.53;1874687;75;28138;-48
2022/12/20 08:23:06;;;;;;;1.35;0.90;;;;;;;23.13;34.85;99817.77;1887589;75;28160;-50
2022/12/20 08:25:54;;;;;;;1.00;0.90;;;;;;;23.11;34.86;99820.75;1866066;76;28177;-46
2022/12/20 08:28:43;;;;;;;0.65;0.65;;;;;;;23.11;34.82;99818.01;1874683;75;28198;-45
2022/12/20 08:31:42;;;;;;;0.80;0.80;;;;;;;23.13;34.78;99836.95;1895246;75;28154;-49
2022/12/20 08:34:34;;;;;;;0.82;0.82;;;;;;;23.09;34.79;99825.63;1889008;75;28183;-49
2022/12/20 08:37:22;;;;;;;2.50;0.80;;;;;;;23.07;34.83;99838.72;1898536;75;28239;-49
2022/12/20 08:40:12;;;;;;;1.30;0.90;;;;;;;23.11;34.77;99834.45;1889784;75;38539;-46
2022/12/20 08:43:00;;;;;;;0.82;0.82;;;;;;;23.12;34.73;99833.39;1888928;75;28081;-49
2022/12/20 08:45:56;;;;;;;1.22;0.98;;;;;;;23.10;34.74;99830.05;1887562;75;28139;-50
2022/12/20 08:48:44;;;;;;;0.88;0.88;;;;;;;23.10;34.73;99836.91;1867495;76;28131;-48
2022/12/20 08:51:33;;;;;;;0.90;0.80;;;;;;;23.09;34.68;99816.03;1876699;75;28112;-46
2022/12/20 08:54:22;;;;;;;1.00;1.00;;;;;;;23.07;34.77;99822.81;1893948;75;28182;-47
2022/12/20 08:57:10;;;;;;;1.00;0.90;;;;;;;23.08;34.77;99832.72;1888023;75;28149;-50
2022/12/20 08:59:58;;;;;;;0.93;0.93;;;;;;;23.09;34.71;99827.52;1884860;75;28330;-47
2022/12/20 09:02:48;;;;;;;1.50;0.95;;;;;;;23.10;34.71;99838.80;1888600;75;28236;-46
2022/12/20 09:05:36;;;;;;;0.80;0.80;;;;;;;23.07;34.72;99811.32;1889137;75;28125;-46
2022/12/20 09:08:26;;;;;;;1.30;0.90;;;;;;;23.08;34.66;99819.02;1887208;75;28126;-46
2022/12/20 09:11:23;;;;;;;0.85;0.85;;;;;;;23.06;34.68;99830.19;1867330;76;28240;-46
2022/12/20 09:14:19;;;;;;;0.80;0.80;;;;;;;23.07;34.70;99825.02;1897411;75;28138;-50
2022/12/20 09:17:08;;;;;;;0.95;0.95;;;;;;;23.02;34.69;99820.76;1889628;75;28124;-48
2022/12/20 09:19:56;;;;;;;0.65;0.65;;;;;;;23.04;34.72;99825.47;1889117;75;28201;-47
2022/12/20 09:22:45;;;;;;;0.90;0.90;;;;;;;23.06;34.68;99810.16;1866135;76;28192;-47
2022/12/20 09:25:34;;;;;;;0.98;0.90;;;;;;;23.07;34.67;99810.48;1897163;75;28060;-49
2022/12/20 09:28:23;;;;;;;1.10;0.90;;;;;;;23.07;34.69;99814.06;1878659;75;28191;-48
2022/12/20 09:31:14;;;;;;;0.70;0.70;;;;;;;23.03;34.67;99807.38;1881408;75;28147;-45
2022/12/20 09:34:03;;;;;;;0.90;0.90;;;;;;;23.06;34.62;99815.64;1882033;75;28087;-46
2022/12/20 09:36:52;;;;;;;1.20;0.98;;;;;;;23.05;34.66;99807.98;1878312;75;28210;-49
2022/12/20 09:39:40;;;;;;;0.70;0.70;;;;;;;23.04;34.68;99803.55;1876277;75;28147;-49
2022/12/20 09:42:30;;;;;;;0.90;0.90;;;;;;;23.05;34.68;99792.91;1885759;75;28599;-45
2022/12/20 09:45:27;;;;;;;0.82;0.82;;;;;;;23.04;34.69;99777.52;1867134;76;28586;-46
2022/12/20 09:48:28;;;;;;;0.85;0.85;;;;;;;23.08;34.63;99777.36;1896729;75;28138;-46
2022/12/20 09:51:25;;;;;;;0.80;0.80;;;;;;;23.02;34.67;99766.48;1898240;75;28153;-47
2022/12/20 09:54:50;;;;;;;0.80;0.80;;;;;;;23.01;34.69;99767.57;1896426;75;28113;-47
2022/12/20 09:57:47;;;;;;;0.73;0.73;;;;;;;22.97;34.68;99764.44;1811148;78;28353;-45
2022/12/20 10:00:38;;;;;;;0.80;0.70;;;;;;;22.94;34.79;99752.56;1897132;74;28200;-47
2022/12/20 10:03:32;;;;;;;0.90;0.90;;;;;;;22.95;34.81;99752.04;1907603;74;28169;-48
2022/12/20 10:06:45;;;;;;;0.90;0.90;;;;;;;22.96;34.79;99755.94;1907459;74;28078;-49
2022/12/20 10:09:52;;;;;;;0.88;0.88;;;;;;;22.99;34.81;99773.79;1896327;74;28095;-52
2022/12/20 10:13:02;;;;;;;1.30;1.00;;;;;;;22.96;34.81;99766.89;1799369;79;28310;-49
2022/12/20 10:15:53;;;;;;;1.32;0.82;;;;;;;22.91;34.85;99764.01;1877237;75;28103;-48
2022/12/20 10:18:46;;;;;;;0.70;0.70;;;;;;;22.93;34.83;99759.13;1875008;75;28208;-49
2022/12/20 10:21:53;;;;;;;0.82;0.82;;;;;;;22.95;34.81;99743.30;1888266;75;28552;-46
2022/12/20 10:24:44;;;;;;;0.85;0.80;;;;;;;22.94;34.80;99747.64;1867770;76;28099;-49
2022/12/20 10:27:36;;;;;;;1.00;1.00;;;;;;;22.92;34.77;99731.42;1867520;76;28104;-46
2022/12/20 10:30:25;;;;;;;1.00;0.90;;;;;;;22.97;34.80;99730.20;1888615;75;28158;-46
2022/12/20 10:33:22;;;;;;;0.90;0.90;;;;;;;22.95;34.78;99726.86;1892385;75;28203;-50
2022/12/20 10:36:25;;;;;;;0.75;0.75;;;;;;;22.97;34.68;99706.06;1845417;76;28255;-48
2022/12/20 10:39:16;;;;;;;0.75;0.75;;;;;;;22.95;34.78;99719.16;1846654;76;28129;-46
2022/12/20 10:42:38;;;;;;;0.70;0.70;;;;;;;22.97;34.68;99716.50;1836016;77;33197;-47
2022/12/20 10:45:36;;;;;;;0.90;0.90;;;;;;;22.97;34.77;99721.98;1849292;76;28149;-49
2022/12/20 10:48:33;;;;;;;0.70;0.70;;;;;;;22.93;34.79;99696.13;1864286;76;28154;-47
2022/12/20 10:51:23;;;;;;;0.82;0.82;;;;;;;22.96;34.77;99700.30;1837426;76;28212;-50
2022/12/20 10:54:24;;;;;;;0.90;0.90;;;;;;;22.94;34.79;99684.08;1854864;76;28200;-45
2022/12/20 10:57:24;;;;;;;0.90;0.90;;;;;;;22.97;34.76;99694.58;1854918;76;28222;-49
2022/12/20 11:00:16;;;;;;;0.80;0.80;;;;;;;22.98;34.76;99699.01;1852364;76;32065;-48
2022/12/20 11:03:19;;;;;;;0.70;0.70;;;;;;;22.97;34.76;99689.10;1864481;76;28150;-47
2022/12/20 11:06:11;;;;;;;1.50;0.90;;;;;;;22.98;34.73;99686.68;1843433;76;28892;-47
2022/12/20 11:09:18;;;;;;;0.90;0.90;;;;;;;22.98;34.76;99675.72;1835616;76;28365;-50
2022/12/20 11:12:10;;;;;;;0.80;0.80;;;;;;;22.98;34.72;99666.13;1848192;76;28184;-48
2022/12/20 11:15:19;;;;;;;0.90;0.90;;;;;;;22.98;34.71;99664.77;1849424;76;28207;-49
2022/12/20 11:18:38;;;;;;;0.80;0.80;;;;;;;23.00;34.83;99663.98;1852140;76;28173;-47
2022/12/20 11:21:43;;;;;;;0.80;0.80;;;;;;;23.00;34.83;99663.98;1834824;77;28262;-46
2022/12/20 11:24:58;;;;;;;0.73;0.73;;;;;;;22.99;34.73;99649.14;1851109;76;28221;-49
2022/12/20 11:28:06;;;;;;;0.80;0.80;;;;;;;22.97;34.75;99662.23;1864567;76;28676;-47
2022/12/20 11:31:08;;;;;;;0.80;0.80;;;;;;;22.95;34.79;99651.52;1834530;77;28126;-46
2022/12/20 11:34:08;;;;;;;0.80;0.80;;;;;;;22.95;34.80;99635.08;1844110;76;38524;-50
2022/12/20 11:37:20;;;;;;;1.05;0.95;;;;;;;22.98;34.74;99646.11;1885459;75;28118;-51
2022/12/20 11:40:32;;;;;;;1.62;0.90;;;;;;;22.97;34.72;99629.36;1872619;75;28151;-48
2022/12/20 11:43:33;;;;;;;0.80;0.80;;;;;;;22.97;34.74;99620.61;1887040;75;28134;-46
2022/12/20 11:46:27;;;;;;;0.70;0.70;;;;;;;22.94;34.79;99602.45;1887084;75;28064;-50
2022/12/20 11:49:42;;;;;;;1.40;0.93;;;;;;;22.97;34.77;99604.70;1886691;75;28052;-50
2022/12/20 11:52:43;;;;;;;0.80;0.80;;;;;;;22.97;34.71;99606.92;1886987;75;28164;-48
2022/12/20 11:55:37;;;;;;;0.72;0.72;;;;;;;22.95;34.75;99591.78;1905000;75;28063;-53
2022/12/20 11:58:34;;;;;;;0.85;0.85;;;;;;;22.97;34.75;99585.53;1875275;76;28224;-49
2022/12/20 12:01:33;;;;;;;0.90;0.90;;;;;;;22.97;34.72;99578.16;1872537;76;28210;-49
2022/12/20 12:04:36;;;;;;;0.70;0.70;;;;;;;23.00;34.73;99575.48;1845465;76;28245;-47
2022/12/20 12:07:31;;;;;;;1.00;0.78;;;;;;;22.98;34.70;99580.36;1843714;76;28438;-47
2022/12/20 12:10:31;;;;;;;0.80;0.80;;;;;;;22.96;34.74;99572.39;1811053;78;28305;-48
2022/12/20 12:13:29;;;;;;;0.70;0.70;;;;;;;22.98;34.73;99573.52;1848840;76;28236;-47
2022/12/20 12:16:22;;;;;;;0.80;0.80;;;;;;;22.99;34.67;99565.58;1821563;77;28273;-45
2022/12/20 12:19:14;;;;;;;0.78;0.60;;;;;;;22.97;34.69;99541.17;1819613;78;28539;-48
2022/12/20 12:22:09;;;;;;;0.80;0.80;;;;;;;22.98;34.72;99542.85;1865278;76;28262;-47
2022/12/20 12:25:00;;;;;;;0.85;0.82;;;;;;;23.01;34.59;99549.77;1819055;78;28337;-47
2022/12/20 12:27:51;;;;;;;0.70;0.70;;;;;;;23.00;34.63;99542.08;1827056;77;28576;-49
2022/12/20 12:30:43;;;;;;;0.90;0.90;;;;;;;23.01;34.62;99535.51;1841388;77;28329;-47
2022/12/20 12:33:37;;;;;;;0.57;0.57;;;;;;;23.01;34.63;99548.40;1820604;77;28238;-50
2022/12/20 12:36:40;;;;;;;0.72;0.72;;;;;;;22.99;34.61;99543.13;1819465;77;28200;-45
2022/12/20 12:40:05;;;;;;;0.70;0.70;;;;;;;23.00;34.63;99543.45;1834095;77;28209;-47
2022/12/20 12:43:00;;;;;;;0.80;0.80;;;;;;;23.00;34.62;99525.64;1810868;78;28237;-50
2022/12/20 12:45:59;;;;;;;0.70;0.70;;;;;;;22.97;34.66;99517.89;1869233;75;28173;-45
2022/12/20 12:49:00;;;;;;;0.80;0.80;;;;;;;22.98;34.68;99521.47;1856936;77;28637;-48
2022/12/20 12:51:58;;;;;;;0.70;0.70;;;;;;;23.00;34.62;99513.84;1870627;75;28212;-45
2022/12/20 12:54:46;;;;;;;0.73;0.73;;;;;;;22.98;34.63;99509.98;1878836;75;28053;-46
2022/12/20 12:57:38;;;;;;;0.60;0.60;;;;;;;22.98;34.63;99509.14;1895320;75;28212;-47
2022/12/20 13:00:53;;;;;;;0.80;0.80;;;;;;;23.01;34.65;99513.59;1901292;75;28116;-45
2022/12/20 13:03:53;;;;;;;1.05;0.70;;;;;;;23.02;34.54;99491.98;1828980;78;28124;-46
2022/12/20 13:06:45;;;;;;;1.40;0.65;;;;;;;23.02;34.62;99489.25;1783854;79;28350;-50
2022/12/20 13:09:39;;;;;;;0.70;0.70;;;;;;;23.01;34.60;99497.72;1795194;78;38445;-49
2022/12/20 13:12:40;;;;;;;0.60;0.60;;;;;;;23.02;34.57;99481.03;1852258;76;28221;-46
2022/12/20 13:15:35;;;;;;;0.80;0.80;;;;;;;23.02;34.58;99486.51;1819509;78;28230;-48
2022/12/20 13:18:27;;;;;;;0.60;0.60;;;;;;;23.00;34.54;99490.02;1817946;78;28328;-46
2022/12/20 13:21:29;;;;;;;0.60;0.60;;;;;;;23.01;34.62;99496.34;1837939;77;28146;-48
2022/12/20 13:24:54;;;;;;;0.70;0.70;;;;;;;23.03;34.58;99489.56;1791683;79;28333;-48
2022/12/20 13:27:39;;;;;;;0.75;0.75;;;;;;;23.01;34.59;99494.41;1805876;78;28367;-50
2022/12/20 13:30:29;;;;;;;0.70;0.70;;;;;;;22.98;34.64;99501.76;1796168;77;28340;-49
2022/12/20 13:33:37;;;;;;;0.80;0.80;;;;;;;22.98;34.64;99502.29;1813503;78;28223;-46
2022/12/20 13:36:37;;;;;;;0.78;0.78;;;;;;;23.01;34.55;99502.63;1844680;76;28201;-51
2022/12/20 13:39:28;;;;;;;0.68;0.68;;;;;;;22.99;34.58;99492.98;1818553;78;28162;-49
2022/12/20 13:42:29;;;;;;;0.70;0.70;;;;;;;22.97;34.60;99487.75;1901836;75;28099;-45
2022/12/20 13:45:18;;;;;;;0.70;0.70;;;;;;;23.02;34.57;99482.92;1869058;76;28165;-47
2022/12/20 13:48:11;;;;;;;0.70;0.70;;;;;;;22.98;34.62;99486.69;1890605;75;28146;-49
2022/12/20 13:51:02;;;;;;;0.90;0.80;;;;;;;23.00;34.59;99480.97;1893314;75;28209;-48